Time;durP1;ratioP1;P1;durP2;ratioP2;P2;SDS_P1;SDS_P2;PMS_P1;PMS_P2;Temp;Humidity;BMP_temperature;BMP_pressure;BME280_temperature;BME280_humidity;BME280_pressure;Samples;Min_cycle;Max_cycle;Signal;HPM_P1;HPM_P2
2022/03/30 00:00:43;;;;;;;44.92;21.92;;;8.70;99.90;;;;;;5102598;28;20024;-70
2022/03/30 00:03:09;;;;;;;46.22;22.52;;;8.70;99.90;;;;;;5103407;28;20024;-71
2022/03/30 00:05:35;;;;;;;47.28;22.27;;;8.70;99.90;;;;;;5102300;28;20200;-71
2022/03/30 00:08:01;;;;;;;45.00;23.25;;;8.70;99.90;;;;;;5085346;28;20016;-70
2022/03/30 00:10:27;;;;;;;45.33;22.73;;;8.70;99.90;;;;;;5101769;28;20073;-70
2022/03/30 00:12:54;;;;;;;47.55;22.92;;;8.70;99.90;;;;;;5102287;28;20020;-70
2022/03/30 00:15:20;;;;;;;49.15;23.42;;;8.70;99.90;;;;;;5102340;28;20020;-70
2022/03/30 00:17:46;;;;;;;51.70;24.17;;;8.70;99.90;;;;;;5085332;28;20020;-70
2022/03/30 00:20:12;;;;;;;51.85;25.42;;;8.70;99.90;;;;;;5102293;28;20054;-70
2022/03/30 00:22:40;;;;;;;50.83;23.42;;;8.70;99.90;;;;;;5102128;28;20043;-69
2022/03/30 00:25:07;;;;;;;51.25;24.77;;;8.80;99.90;;;;;;5102083;28;20069;-69
2022/03/30 00:27:34;;;;;;;49.15;23.45;;;8.70;99.90;;;;;;5088368;28;20024;-71
2022/03/30 00:30:00;;;;;;;48.45;23.95;;;8.70;99.90;;;;;;5106147;28;20024;-69
2022/03/30 00:32:26;;;;;;;52.58;24.38;;;8.70;99.90;;;;;;5105968;28;20024;-69
2022/03/30 00:34:52;;;;;;;54.05;24.48;;;8.80;99.90;;;;;;5116185;28;20195;-69
2022/03/30 00:37:17;;;;;;;57.28;25.80;;;8.70;99.90;;;;;;5107846;28;20091;-71
2022/03/30 00:39:43;;;;;;;53.15;24.85;;;8.60;99.90;;;;;;5125839;28;20020;-69
2022/03/30 00:42:18;;;;;;;53.50;23.92;;;8.60;99.90;;;;;;5108912;28;20369;-71
2022/03/30 00:44:44;;;;;;;52.58;24.48;;;8.60;99.90;;;;;;5108723;28;20047;-69
2022/03/30 00:47:14;;;;;;;53.63;25.33;;;8.50;99.90;;;;;;5114284;28;20020;-70
2022/03/30 00:49:40;;;;;;;54.67;25.45;;;8.50;99.90;;;;;;5106822;28;20020;-69
2022/03/30 00:52:06;;;;;;;51.92;24.42;;;8.50;99.90;;;;;;5088624;28;20286;-70
2022/03/30 00:54:31;;;;;;;50.85;23.35;;;8.60;99.90;;;;;;5088628;28;20020;-69
2022/03/30 00:56:58;;;;;;;46.33;21.77;;;8.50;99.90;;;;;;5088632;28;20262;-69
2022/03/30 00:59:23;;;;;;;48.22;22.88;;;8.50;99.90;;;;;;5088430;28;20307;-69
2022/03/30 01:01:49;;;;;;;53.75;23.85;;;8.60;99.90;;;;;;5106201;28;20020;-69
2022/03/30 01:04:15;;;;;;;49.88;22.48;;;8.50;99.90;;;;;;5105324;28;20027;-69
2022/03/30 01:06:40;;;;;;;46.00;22.30;;;8.60;99.90;;;;;;5088426;28;20020;-69
2022/03/30 01:09:06;;;;;;;49.80;22.08;;;8.60;99.90;;;;;;5104695;28;20034;-69
2022/03/30 01:11:32;;;;;;;48.30;22.42;;;8.50;99.90;;;;;;5088224;28;20206;-69
2022/03/30 01:13:59;;;;;;;47.97;23.48;;;8.50;99.90;;;;;;5088448;28;20012;-69
2022/03/30 01:16:25;;;;;;;44.47;21.08;;;8.50;99.90;;;;;;5105179;28;20027;-70
2022/03/30 01:19:02;;;;;;;47.70;21.90;;;8.40;99.90;;;;;;5105041;28;20027;-69
2022/03/30 01:21:28;;;;;;;47.00;21.50;;;8.40;99.90;;;;;;5071772;28;20263;-70
2022/03/30 01:23:54;;;;;;;46.08;20.58;;;8.40;99.90;;;;;;5088005;28;20066;-69
2022/03/30 01:26:19;;;;;;;43.45;21.25;;;8.40;99.90;;;;;;5105014;28;20203;-70
2022/03/30 01:28:45;;;;;;;44.90;20.25;;;8.40;99.90;;;;;;5104672;28;20039;-69
2022/03/30 01:33:57;;;;;;;48.25;22.25;;;8.30;99.90;;;;;;5078576;28;20373;-69
2022/03/30 01:36:23;;;;;;;48.22;22.50;;;8.40;99.90;;;;;;5106672;28;20233;-69
2022/03/30 01:38:49;;;;;;;46.13;19.80;;;8.30;99.90;;;;;;5126146;28;20210;-70
2022/03/30 01:41:14;;;;;;;43.63;20.05;;;8.30;99.90;;;;;;5107680;28;20020;-70
2022/03/30 01:43:40;;;;;;;44.83;20.48;;;8.30;99.90;;;;;;5107933;28;20059;-70
2022/03/30 01:46:06;;;;;;;46.33;21.38;;;8.30;99.90;;;;;;5123354;28;20211;-71
2022/03/30 01:48:32;;;;;;;43.80;20.85;;;8.30;99.90;;;;;;5105602;28;20036;-69
2022/03/30 01:50:59;;;;;;;46.20;21.45;;;8.30;99.90;;;;;;5104643;28;20020;-69
2022/03/30 01:53:25;;;;;;;44.75;20.90;;;8.30;99.90;;;;;;5071327;28;20031;-69
2022/03/30 01:55:51;;;;;;;41.08;19.05;;;8.40;99.90;;;;;;5105520;28;20031;-70
2022/03/30 01:58:17;;;;;;;41.42;20.23;;;8.40;99.90;;;;;;5087192;28;20249;-69
2022/03/30 02:00:44;;;;;;;40.95;20.17;;;8.40;99.90;;;;;;5103881;28;20016;-69
2022/03/30 02:03:10;;;;;;;42.70;20.73;;;8.50;99.90;;;;;;5087292;28;20032;-71
2022/03/30 02:05:36;;;;;;;35.50;18.95;;;8.40;99.90;;;;;;5105355;28;20012;-70
2022/03/30 02:08:02;;;;;;;38.50;19.95;;;8.40;99.90;;;;;;5087553;28;20047;-69
2022/03/30 02:10:29;;;;;;;48.45;22.88;;;8.30;99.90;;;;;;5103271;28;20031;-69
2022/03/30 02:12:55;;;;;;;41.03;20.85;;;8.30;99.90;;;;;;5104072;28;20020;-70
2022/03/30 02:15:22;;;;;;;41.08;21.70;;;8.30;99.90;;;;;;5087110;28;20103;-70
2022/03/30 02:17:48;;;;;;;45.60;23.33;;;8.40;99.90;;;;;;5104056;28;20095;-69
2022/03/30 02:20:14;;;;;;;43.10;22.63;;;8.30;99.90;;;;;;5104771;28;20034;-71
2022/03/30 02:22:40;;;;;;;41.95;22.10;;;8.30;99.90;;;;;;5086784;28;20237;-69
2022/03/30 02:25:06;;;;;;;43.65;21.17;;;8.20;99.90;;;;;;5103690;28;20226;-71
2022/03/30 02:27:32;;;;;;;39.28;22.20;;;8.10;99.90;;;;;;5086800;28;20024;-69
2022/03/30 02:29:58;;;;;;;41.13;21.23;;;8.10;99.90;;;;;;5103612;28;20020;-71
2022/03/30 02:32:24;;;;;;;40.10;20.90;;;8.20;99.90;;;;;;5103537;28;20219;-70
2022/03/30 02:34:50;;;;;;;40.20;21.05;;;8.20;99.90;;;;;;5095790;28;20061;-69
2022/03/30 02:37:16;;;;;;;38.20;20.60;;;8.20;99.90;;;;;;5105391;28;20131;-70
2022/03/30 02:39:42;;;;;;;35.60;19.73;;;8.10;99.90;;;;;;5123273;28;20117;-69
2022/03/30 02:42:08;;;;;;;39.83;19.88;;;8.10;99.90;;;;;;5090132;28;20030;-69
2022/03/30 02:44:35;;;;;;;42.00;20.80;;;8.10;99.90;;;;;;5123592;28;20129;-70
2022/03/30 02:47:01;;;;;;;47.47;22.52;;;8.10;99.90;;;;;;5113321;28;20035;-69
2022/03/30 02:49:27;;;;;;;44.28;21.10;;;8.10;99.90;;;;;;5085608;28;20023;-69
2022/03/30 02:51:53;;;;;;;40.72;21.70;;;8.10;99.90;;;;;;5103215;28;20050;-69
2022/03/30 02:54:20;;;;;;;39.45;21.25;;;8.10;99.90;;;;;;5104372;28;20028;-70
2022/03/30 02:56:45;;;;;;;41.05;21.27;;;8.00;99.90;;;;;;5103358;28;20318;-69
2022/03/30 02:59:11;;;;;;;42.90;21.45;;;8.00;99.90;;;;;;5103282;28;20048;-70
2022/03/30 03:01:37;;;;;;;37.47;20.30;;;8.10;99.90;;;;;;5103042;28;20023;-69
2022/03/30 03:04:03;;;;;;;40.72;21.25;;;8.10;99.90;;;;;;5102794;28;20027;-69
2022/03/30 03:06:29;;;;;;;39.85;21.30;;;8.10;99.90;;;;;;5069598;28;20027;-70
2022/03/30 03:08:57;;;;;;;39.10;21.25;;;8.10;99.90;;;;;;5102549;28;20016;-69
2022/03/30 03:11:23;;;;;;;42.67;22.48;;;8.10;99.90;;;;;;5102745;28;20095;-70
2022/03/30 03:13:49;;;;;;;41.72;22.17;;;8.10;99.90;;;;;;5102969;28;20027;-70
2022/03/30 03:16:15;;;;;;;43.05;22.42;;;8.10;99.90;;;;;;5085982;28;20223;-70
2022/03/30 03:18:41;;;;;;;43.78;22.38;;;8.00;99.90;;;;;;5086258;28;20024;-69
2022/03/30 03:21:06;;;;;;;44.95;22.25;;;8.00;99.90;;;;;;5103883;28;20095;-69
2022/03/30 03:23:32;;;;;;;37.42;20.35;;;8.00;99.90;;;;;;5103537;28;20284;-69
2022/03/30 03:25:58;;;;;;;41.53;20.85;;;8.10;99.90;;;;;;5102858;28;20047;-70
2022/03/30 03:28:23;;;;;;;38.78;21.15;;;8.00;99.90;;;;;;5102772;28;20078;-69
2022/03/30 03:30:49;;;;;;;43.15;21.80;;;7.90;99.90;;;;;;5085742;28;20211;-70
2022/03/30 03:33:15;;;;;;;38.90;21.80;;;7.80;99.90;;;;;;5102631;28;20028;-68
2022/03/30 03:35:41;;;;;;;38.25;19.92;;;7.80;99.90;;;;;;5120014;28;20106;-69
2022/03/30 03:38:08;;;;;;;37.25;20.77;;;7.80;99.90;;;;;;5104114;28;20218;-69
2022/03/30 03:40:35;;;;;;;39.38;20.70;;;7.90;99.90;;;;;;5122444;28;20218;-69
2022/03/30 03:43:02;;;;;;;38.17;20.83;;;7.80;99.90;;;;;;5122714;28;20108;-69
2022/03/30 03:45:28;;;;;;;39.03;21.35;;;7.90;99.90;;;;;;5106028;28;20024;-69
2022/03/30 03:47:54;;;;;;;35.70;20.00;;;7.90;99.90;;;;;;5104542;28;20042;-69
2022/03/30 03:50:20;;;;;;;35.47;19.05;;;7.90;99.90;;;;;;5101895;28;20027;-69
2022/03/30 03:52:46;;;;;;;39.05;20.48;;;7.80;99.90;;;;;;5102122;28;20406;-69
2022/03/30 03:55:12;;;;;;;36.88;20.25;;;7.80;99.90;;;;;;5102141;28;20038;-69
2022/03/30 03:57:39;;;;;;;36.08;19.40;;;7.80;99.90;;;;;;5068817;28;20203;-70
2022/03/30 04:00:06;;;;;;;33.25;19.88;;;7.80;99.90;;;;;;5070522;28;20024;-69
2022/03/30 04:02:32;;;;;;;35.65;20.13;;;7.80;99.90;;;;;;5107104;28;20053;-69
2022/03/30 04:04:57;;;;;;;39.63;20.98;;;7.70;99.90;;;;;;5106618;28;20039;-70
2022/03/30 04:07:23;;;;;;;39.08;20.45;;;7.70;99.90;;;;;;5106534;28;20024;-68
2022/03/30 04:09:49;;;;;;;36.70;20.75;;;7.70;99.90;;;;;;5085738;28;20024;-68
2022/03/30 04:12:15;;;;;;;34.83;20.17;;;7.60;99.90;;;;;;5085709;28;20320;-68
2022/03/30 04:14:40;;;;;;;38.00;20.85;;;7.70;99.90;;;;;;5102921;28;20016;-71
2022/03/30 04:17:06;;;;;;;40.28;21.77;;;7.70;99.90;;;;;;5102705;28;20219;-69
2022/03/30 04:19:32;;;;;;;40.35;20.52;;;7.70;99.90;;;;;;5086156;28;20025;-69
2022/03/30 04:21:57;;;;;;;35.85;20.23;;;7.80;99.90;;;;;;5085644;28;20092;-69
2022/03/30 04:24:23;;;;;;;40.08;20.88;;;7.80;99.90;;;;;;5085909;28;20024;-69
2022/03/30 04:26:49;;;;;;;36.58;20.33;;;7.80;99.90;;;;;;5086902;28;20215;-69
2022/03/30 04:29:14;;;;;;;38.22;21.17;;;7.80;99.90;;;;;;5087023;28;20020;-70
2022/03/30 04:31:40;;;;;;;37.00;20.83;;;7.70;99.90;;;;;;5085600;28;20027;-70
2022/03/30 04:34:06;;;;;;;36.63;20.38;;;7.70;99.90;;;;;;5092870;28;20012;-69
2022/03/30 04:36:32;;;;;;;32.38;19.67;;;7.70;99.90;;;;;;5126546;28;20023;-69
2022/03/30 04:38:57;;;;;;;38.65;21.20;;;7.70;99.90;;;;;;5107551;28;20352;-69
2022/03/30 04:41:23;;;;;;;35.88;20.98;;;7.70;99.90;;;;;;5126126;28;20211;-69
2022/03/30 04:43:49;;;;;;;37.70;19.98;;;7.70;99.90;;;;;;5091928;28;20111;-69
2022/03/30 04:46:15;;;;;;;35.95;19.80;;;7.70;99.90;;;;;;5121838;28;20016;-69
2022/03/30 04:48:41;;;;;;;36.53;20.30;;;7.60;99.90;;;;;;5105584;28;20024;-69
2022/03/30 04:51:07;;;;;;;34.92;21.10;;;7.70;99.90;;;;;;5071825;28;20219;-69
2022/03/30 04:53:36;;;;;;;36.35;20.48;;;7.70;99.90;;;;;;5088449;28;20016;-69
2022/03/30 04:56:02;;;;;;;34.97;19.83;;;7.60;99.90;;;;;;5105730;28;20196;-70
2022/03/30 04:58:28;;;;;;;35.40;20.67;;;7.60;99.90;;;;;;5105300;28;20034;-69
2022/03/30 05:00:54;;;;;;;37.08;20.38;;;7.60;99.90;;;;;;5088791;28;20026;-69
2022/03/30 05:03:20;;;;;;;34.38;20.08;;;7.50;99.90;;;;;;5105130;28;20094;-69
2022/03/30 05:05:45;;;;;;;36.53;20.70;;;7.50;99.90;;;;;;5106335;28;20079;-69
2022/03/30 05:08:11;;;;;;;35.03;19.95;;;7.50;99.90;;;;;;5088532;28;20070;-69
2022/03/30 05:10:37;;;;;;;40.40;20.23;;;7.50;99.90;;;;;;5084751;28;20092;-69
2022/03/30 05:13:04;;;;;;;37.30;20.80;;;7.40;99.90;;;;;;5083827;28;20082;-69
2022/03/30 05:15:31;;;;;;;37.13;20.80;;;7.50;99.90;;;;;;5068228;28;20048;-71
2022/03/30 05:17:57;;;;;;;35.78;20.40;;;7.50;99.90;;;;;;5101868;28;20327;-69
2022/03/30 05:20:24;;;;;;;37.53;20.77;;;7.40;99.90;;;;;;5086021;28;20326;-70
2022/03/30 05:22:49;;;;;;;35.63;20.25;;;7.40;99.90;;;;;;5084480;28;20070;-69
2022/03/30 05:25:15;;;;;;;40.00;20.35;;;7.50;99.90;;;;;;5085927;28;20092;-71
2022/03/30 05:27:42;;;;;;;37.28;21.25;;;7.50;99.90;;;;;;5067889;28;20070;-69
2022/03/30 05:30:09;;;;;;;37.20;20.73;;;7.60;99.90;;;;;;5101684;28;20021;-69
2022/03/30 05:32:35;;;;;;;41.67;21.60;;;7.60;99.90;;;;;;5085629;28;20028;-70
2022/03/30 05:35:01;;;;;;;38.35;21.23;;;7.60;99.90;;;;;;5081783;28;20243;-69
2022/03/30 05:37:28;;;;;;;40.33;21.98;;;7.60;99.90;;;;;;5108093;28;20069;-69
2022/03/30 05:39:54;;;;;;;38.88;21.92;;;7.60;99.90;;;;;;5089350;28;20016;-70
2022/03/30 05:42:21;;;;;;;37.25;20.73;;;7.60;99.90;;;;;;5124886;28;20023;-71
2022/03/30 05:44:47;;;;;;;42.25;21.17;;;7.60;99.90;;;;;;5107679;28;20051;-71
2022/03/30 05:47:14;;;;;;;37.35;20.48;;;7.60;99.90;;;;;;5112222;28;20016;-70
2022/03/30 05:49:41;;;;;;;41.17;21.30;;;7.60;99.90;;;;;;5104553;28;20053;-70
2022/03/30 05:52:06;;;;;;;38.55;20.98;;;7.60;99.90;;;;;;5104154;28;20024;-70
2022/03/30 05:54:33;;;;;;;40.17;21.98;;;7.60;99.90;;;;;;5104397;28;20024;-70
2022/03/30 05:57:00;;;;;;;38.30;20.90;;;7.60;99.90;;;;;;5104367;28;20368;-71
2022/03/30 05:59:27;;;;;;;36.35;19.75;;;7.60;99.90;;;;;;5105902;28;20061;-70
2022/03/30 06:01:53;;;;;;;33.60;20.35;;;7.70;99.90;;;;;;5103963;28;20024;-70
2022/03/30 06:04:19;;;;;;;35.65;20.17;;;7.80;99.90;;;;;;5087159;28;20103;-69
2022/03/30 06:06:44;;;;;;;35.47;19.45;;;7.70;99.90;;;;;;5103785;28;20032;-70
2022/03/30 06:09:11;;;;;;;37.10;20.33;;;7.80;99.90;;;;;;5104795;28;20019;-70
2022/03/30 06:11:36;;;;;;;37.08;21.55;;;7.70;99.90;;;;;;5104102;28;20062;-70
2022/03/30 06:14:02;;;;;;;43.38;21.73;;;7.60;99.90;;;;;;5105131;28;20230;-70
2022/03/30 06:16:28;;;;;;;40.17;20.63;;;7.60;99.90;;;;;;5070294;28;20020;-70
2022/03/30 06:18:54;;;;;;;41.15;21.38;;;7.60;99.90;;;;;;5104069;28;20020;-71
2022/03/30 06:21:21;;;;;;;37.70;21.10;;;7.70;99.90;;;;;;5104052;28;20023;-71
2022/03/30 06:23:47;;;;;;;40.65;20.80;;;7.70;99.90;;;;;;5102319;28;20036;-71
2022/03/30 06:26:13;;;;;;;43.15;21.42;;;7.70;99.90;;;;;;5103988;28;20130;-70
2022/03/30 06:28:39;;;;;;;38.72;21.83;;;7.70;99.90;;;;;;5086390;28;20024;-70
2022/03/30 06:31:05;;;;;;;39.08;21.45;;;7.80;99.90;;;;;;5104901;28;20024;-70
2022/03/30 06:33:30;;;;;;;40.55;21.75;;;7.70;99.90;;;;;;5103330;28;20024;-68
2022/03/30 06:35:56;;;;;;;40.13;22.10;;;7.70;99.90;;;;;;5122416;28;20011;-70
2022/03/30 06:38:22;;;;;;;38.30;21.55;;;7.80;99.90;;;;;;5123501;28;20082;-69
2022/03/30 06:40:48;;;;;;;37.75;21.52;;;7.80;99.90;;;;;;5123210;28;20073;-70
2022/03/30 06:43:14;;;;;;;41.20;22.05;;;7.80;99.90;;;;;;5106217;28;20324;-69
2022/03/30 06:45:40;;;;;;;40.65;21.80;;;7.80;99.90;;;;;;5106856;28;20028;-69
2022/03/30 06:48:06;;;;;;;35.67;20.42;;;7.90;99.90;;;;;;5104115;28;20020;-71
2022/03/30 06:50:33;;;;;;;42.58;21.98;;;7.80;99.90;;;;;;5104488;28;20015;-70
2022/03/30 06:52:59;;;;;;;39.72;21.45;;;8.00;99.90;;;;;;5102938;28;20265;-70
2022/03/30 06:55:26;;;;;;;41.28;22.85;;;8.00;99.90;;;;;;5086242;28;20020;-72
2022/03/30 06:57:52;;;;;;;41.92;23.27;;;7.90;99.90;;;;;;5103298;28;20366;-71
2022/03/30 07:00:18;;;;;;;43.47;23.15;;;7.90;99.90;;;;;;5104060;28;20020;-70
2022/03/30 07:02:44;;;;;;;42.92;23.42;;;7.80;99.90;;;;;;5091190;28;20020;-71
2022/03/30 07:05:10;;;;;;;46.40;23.52;;;7.80;99.90;;;;;;5106519;28;20023;-69
2022/03/30 07:10:23;;;;;;;48.45;24.38;;;7.70;99.90;;;;;;5095675;28;20262;-69
2022/03/30 07:12:50;;;;;;;39.95;23.55;;;7.70;99.90;;;;;;5082620;28;20348;-70
2022/03/30 07:15:18;;;;;;;43.08;22.92;;;7.80;99.90;;;;;;5084356;28;20330;-70
2022/03/30 07:17:55;;;;;;;44.42;23.45;;;7.90;99.90;;;;;;5065380;28;20027;-71
2022/03/30 07:20:23;;;;;;;44.10;23.10;;;7.90;99.90;;;;;;5102715;28;20031;-69
2022/03/30 07:22:50;;;;;;;45.08;24.73;;;7.80;99.90;;;;;;5103073;28;20031;-71
2022/03/30 07:25:17;;;;;;;39.78;23.75;;;7.80;99.90;;;;;;5084660;28;20180;-70
2022/03/30 07:27:46;;;;;;;43.38;23.88;;;7.80;99.90;;;;;;5069093;28;20024;-72
2022/03/30 07:30:13;;;;;;;45.35;23.27;;;7.90;99.90;;;;;;5065917;28;20048;-68
2022/03/30 07:32:41;;;;;;;42.03;22.63;;;8.10;99.90;;;;;;5065712;28;20012;-68
2022/03/30 07:35:09;;;;;;;42.85;23.33;;;8.20;99.90;;;;;;5079932;28;20350;-69
2022/03/30 07:37:35;;;;;;;42.90;23.50;;;8.30;99.90;;;;;;5105780;28;20027;-69
2022/03/30 07:40:04;;;;;;;44.85;23.48;;;8.30;99.90;;;;;;5122735;28;20024;-69
2022/03/30 07:42:46;;;;;;;41.58;22.95;;;8.40;99.90;;;;;;5121074;28;20044;-71
2022/03/30 07:45:41;;;;;;;40.10;22.77;;;8.40;99.60;;;;;;5089559;28;20140;-70
2022/03/30 07:48:08;;;;;;;46.13;24.77;;;8.60;99.70;;;;;;5066113;28;20122;-69
2022/03/30 07:50:35;;;;;;;46.25;24.75;;;8.30;99.50;;;;;;5082125;28;20024;-71
2022/03/30 07:53:01;;;;;;;45.15;24.25;;;8.30;99.90;;;;;;5065132;28;20020;-70
2022/03/30 07:55:28;;;;;;;47.30;23.90;;;8.40;99.90;;;;;;5071376;28;20204;-71
2022/03/30 07:57:54;;;;;;;43.53;23.70;;;8.50;99.90;;;;;;5077984;28;20107;-71
2022/03/30 08:00:21;;;;;;;43.83;23.60;;;8.70;99.60;;;;;;5040717;28;20025;-68
2022/03/30 08:02:49;;;;;;;42.63;23.23;;;8.80;99.60;;;;;;5064408;28;20100;-69
2022/03/30 08:05:16;;;;;;;39.30;24.00;;;8.80;99.30;;;;;;5063334;28;20024;-74
2022/03/30 08:07:43;;;;;;;46.25;25.15;;;8.80;99.30;;;;;;5081345;28;20213;-70
2022/03/30 08:10:09;;;;;;;43.28;24.85;;;8.50;99.10;;;;;;5061628;28;20320;-69
2022/03/30 08:12:36;;;;;;;40.40;23.05;;;8.40;99.60;;;;;;5044993;28;20025;-68
2022/03/30 08:15:02;;;;;;;45.83;26.15;;;8.30;99.90;;;;;;5061478;28;20032;-68
2022/03/30 08:17:29;;;;;;;42.92;24.48;;;8.40;99.90;;;;;;5045100;28;20102;-70
2022/03/30 08:19:57;;;;;;;48.67;24.63;;;8.50;99.80;;;;;;5061334;28;20025;-69
2022/03/30 08:22:28;;;;;;;44.40;24.33;;;8.50;99.90;;;;;;5028947;28;20096;-68
2022/03/30 08:25:00;;;;;;;43.20;24.67;;;8.60;99.60;;;;;;5061946;28;20257;-69
2022/03/30 08:27:28;;;;;;;42.40;24.13;;;8.50;99.40;;;;;;5044963;28;20361;-69
2022/03/30 08:29:55;;;;;;;41.22;23.45;;;8.40;99.70;;;;;;5061646;28;20081;-69
2022/03/30 08:32:22;;;;;;;44.78;25.10;;;8.60;99.90;;;;;;5061682;28;20085;-72
2022/03/30 08:34:49;;;;;;;42.40;23.77;;;8.90;99.30;;;;;;5079935;28;20222;-69
2022/03/30 08:37:15;;;;;;;46.35;24.60;;;8.90;99.00;;;;;;5101706;28;20016;-69
2022/03/30 08:39:41;;;;;;;43.75;25.42;;;8.90;98.90;;;;;;5084084;28;20016;-69
2022/03/30 08:42:09;;;;;;;41.78;24.55;;;9.00;98.80;;;;;;5083436;28;20299;-69
2022/03/30 08:44:36;;;;;;;43.58;23.55;;;9.10;98.60;;;;;;5114164;28;20326;-71
2022/03/30 08:47:03;;;;;;;47.30;25.05;;;9.10;98.60;;;;;;5112340;28;20057;-71
2022/03/30 08:49:33;;;;;;;47.50;25.20;;;9.10;98.60;;;;;;5105285;28;20219;-71
2022/03/30 08:52:00;;;;;;;43.75;23.90;;;9.20;98.50;;;;;;5106118;28;20016;-71
2022/03/30 08:54:26;;;;;;;40.83;22.90;;;9.20;98.20;;;;;;5105415;28;20031;-68
2022/03/30 08:56:52;;;;;;;44.08;22.75;;;9.30;98.40;;;;;;5105978;28;20028;-67
2022/03/30 08:59:23;;;;;;;44.10;25.38;;;9.30;98.30;;;;;;5104906;28;20299;-69
2022/03/30 09:01:50;;;;;;;44.05;24.58;;;9.40;98.20;;;;;;5088745;28;20020;-68
2022/03/30 09:04:18;;;;;;;43.50;24.15;;;9.50;97.90;;;;;;5105045;28;20040;-69
2022/03/30 09:06:48;;;;;;;43.25;24.65;;;9.70;97.80;;;;;;5084042;28;20032;-69
2022/03/30 09:09:16;;;;;;;46.05;25.13;;;9.90;97.20;;;;;;5090829;28;20028;-68
2022/03/30 09:11:45;;;;;;;44.08;24.08;;;9.80;97.30;;;;;;5104912;28;20044;-68
2022/03/30 09:14:12;;;;;;;48.22;26.13;;;9.80;97.00;;;;;;5088223;28;20020;-69
2022/03/30 09:16:42;;;;;;;45.22;24.05;;;9.60;97.40;;;;;;5104655;28;20307;-71
2022/03/30 09:19:09;;;;;;;48.20;25.23;;;9.60;97.60;;;;;;5104876;28;20050;-67
2022/03/30 09:21:46;;;;;;;47.75;24.83;;;9.60;97.70;;;;;;5087674;28;20024;-67
2022/03/30 09:24:13;;;;;;;42.33;25.58;;;9.60;97.80;;;;;;5106040;28;20027;-70
2022/03/30 09:26:41;;;;;;;42.53;24.75;;;9.80;97.80;;;;;;5104143;28;20028;-69
2022/03/30 09:29:07;;;;;;;47.83;24.58;;;10.00;97.30;;;;;;5104875;28;20050;-70
2022/03/30 09:31:36;;;;;;;41.78;23.98;;;10.20;96.80;;;;;;5103981;28;20307;-71
2022/03/30 09:34:03;;;;;;;42.97;24.85;;;10.30;96.50;;;;;;5106927;28;20023;-69
2022/03/30 09:36:32;;;;;;;41.35;23.85;;;10.50;96.70;;;;;;5107160;28;20031;-70
2022/03/30 09:38:58;;;;;;;45.40;25.17;;;10.60;96.40;;;;;;5104775;28;20055;-71
2022/03/30 09:41:24;;;;;;;44.42;22.58;;;10.50;96.10;;;;;;5087620;28;20020;-69
2022/03/30 09:44:03;;;;;;;43.58;23.40;;;10.50;95.80;;;;;;5102285;28;20085;-68
2022/03/30 09:46:29;;;;;;;43.92;23.98;;;10.30;95.90;;;;;;5104929;28;20016;-68
2022/03/30 09:48:54;;;;;;;42.58;23.17;;;10.10;96.40;;;;;;5104137;28;20024;-70
2022/03/30 09:51:22;;;;;;;45.08;24.10;;;10.10;96.70;;;;;;5105097;28;20093;-70
2022/03/30 09:53:49;;;;;;;46.40;24.83;;;10.00;96.50;;;;;;5087394;28;20012;-69
2022/03/30 09:56:20;;;;;;;41.20;23.98;;;9.70;96.80;;;;;;5103381;28;20069;-68
2022/03/30 09:58:46;;;;;;;39.75;23.33;;;9.70;97.10;;;;;;5103615;28;20023;-70
2022/03/30 10:01:22;;;;;;;42.90;22.33;;;9.60;97.20;;;;;;5087235;28;20103;-68
2022/03/30 10:03:59;;;;;;;41.90;23.38;;;9.80;97.10;;;;;;5087027;28;20047;-68
2022/03/30 10:06:28;;;;;;;43.72;24.02;;;10.10;97.10;;;;;;5103621;28;20074;-69
2022/03/30 10:08:55;;;;;;;45.92;24.02;;;10.20;96.50;;;;;;5101000;28;20024;-70
2022/03/30 10:11:22;;;;;;;52.00;25.15;;;10.30;96.50;;;;;;5082874;28;20047;-70
2022/03/30 10:13:50;;;;;;;48.28;24.67;;;10.40;96.10;;;;;;5083733;28;20024;-70
2022/03/30 10:16:18;;;;;;;46.22;24.40;;;10.30;96.10;;;;;;5072893;28;20016;-69
2022/03/30 10:18:45;;;;;;;49.33;25.08;;;10.20;96.30;;;;;;5103178;28;20020;-70
2022/03/30 10:21:19;;;;;;;43.13;24.38;;;10.10;96.60;;;;;;5104012;28;20016;-72
2022/03/30 10:24:21;;;;;;;43.30;25.70;;;10.30;96.60;;;;;;5103767;28;20091;-68
2022/03/30 10:27:16;;;;;;;45.50;24.35;;;10.10;96.80;;;;;;5065861;28;20070;-68
2022/03/30 10:30:04;;;;;;;46.97;24.10;;;10.10;96.70;;;;;;5083702;28;20035;-69
2022/03/30 10:32:35;;;;;;;42.88;24.27;;;10.30;96.70;;;;;;5086308;28;20140;-71
2022/03/30 10:35:11;;;;;;;42.92;24.55;;;10.50;95.90;;;;;;5080684;28;20242;-69
2022/03/30 10:37:40;;;;;;;43.25;23.85;;;10.20;96.20;;;;;;5106162;28;20323;-71
2022/03/30 10:40:09;;;;;;;45.13;25.38;;;10.20;96.40;;;;;;5089872;28;20019;-72
2022/03/30 10:42:58;;;;;;;44.10;25.20;;;10.30;96.20;;;;;;5123430;28;20294;-71
2022/03/30 10:45:31;;;;;;;48.15;26.38;;;10.50;95.80;;;;;;5090793;28;20223;-69
2022/03/30 10:48:37;;;;;;;44.60;25.40;;;10.50;95.80;;;;;;5105061;28;20024;-69
2022/03/30 10:51:17;;;;;;;46.60;24.75;;;10.50;96.20;;;;;;5080970;28;20028;-71
2022/03/30 10:53:47;;;;;;;45.38;25.50;;;10.60;96.00;;;;;;5076622;28;20208;-71
2022/03/30 10:56:28;;;;;;;45.80;25.88;;;10.40;96.00;;;;;;5079167;28;20091;-72
2022/03/30 10:59:10;;;;;;;45.70;25.25;;;10.40;96.10;;;;;;5076366;28;20094;-70
2022/03/30 11:01:38;;;;;;;45.17;24.15;;;10.50;96.20;;;;;;5066253;28;20345;-71
2022/03/30 11:04:22;;;;;;;48.45;25.60;;;10.40;95.70;;;;;;5082480;28;20032;-69
2022/03/30 11:07:27;;;;;;;43.85;24.25;;;10.10;96.30;;;;;;5066474;28;20207;-71
2022/03/30 11:10:15;;;;;;;43.92;23.75;;;10.20;96.60;;;;;;5073093;28;20016;-69
2022/03/30 11:13:08;;;;;;;41.67;23.88;;;10.60;96.10;;;;;;5052082;28;20028;-71
2022/03/30 11:16:06;;;;;;;42.25;22.73;;;11.00;96.10;;;;;;5050468;28;20097;-70
2022/03/30 11:18:32;;;;;;;41.35;22.92;;;11.30;94.80;;;;;;5071897;28;20028;-70
2022/03/30 11:21:15;;;;;;;41.40;23.45;;;11.10;94.80;;;;;;5085771;28;20022;-72
2022/03/30 11:24:09;;;;;;;44.60;24.25;;;11.10;95.10;;;;;;5103537;28;20322;-71
2022/03/30 11:27:14;;;;;;;43.25;23.58;;;11.30;95.00;;;;;;5088943;28;20028;-70
2022/03/30 11:29:48;;;;;;;43.13;23.50;;;11.80;94.20;;;;;;5091110;28;20027;-69
2022/03/30 11:32:37;;;;;;;43.50;24.60;;;11.40;94.30;;;;;;5103400;28;20036;-69
2022/03/30 11:35:07;;;;;;;46.83;25.60;;;11.00;94.90;;;;;;5099632;28;20038;-69
2022/03/30 11:37:36;;;;;;;42.10;23.50;;;11.10;95.20;;;;;;5105750;28;20047;-69
2022/03/30 11:40:05;;;;;;;41.85;24.63;;;11.40;94.60;;;;;;5122067;28;20240;-71
2022/03/30 11:42:31;;;;;;;40.80;23.90;;;11.30;94.60;;;;;;5106201;28;20260;-70
2022/03/30 11:45:15;;;;;;;40.78;23.33;;;11.30;94.80;;;;;;5120883;28;20039;-70
2022/03/30 11:47:44;;;;;;;41.58;24.60;;;11.00;95.00;;;;;;5106265;28;20291;-71
2022/03/30 11:50:12;;;;;;;40.10;24.10;;;11.30;95.20;;;;;;5085673;28;20315;-70
2022/03/30 11:52:39;;;;;;;41.08;22.88;;;11.30;94.70;;;;;;5068896;28;20093;-71
2022/03/30 11:55:07;;;;;;;41.50;23.27;;;11.30;95.30;;;;;;5102420;28;20016;-69
2022/03/30 11:57:42;;;;;;;42.83;25.23;;;11.50;94.50;;;;;;5100995;28;20016;-68
2022/03/30 12:00:10;;;;;;;43.10;24.75;;;11.40;94.50;;;;;;5102700;28;20250;-68
2022/03/30 12:02:38;;;;;;;45.35;24.63;;;11.20;94.80;;;;;;5100882;28;20362;-67
2022/03/30 12:05:04;;;;;;;40.92;23.98;;;11.30;95.20;;;;;;5068772;28;20035;-68
2022/03/30 12:07:35;;;;;;;42.78;23.13;;;11.50;94.90;;;;;;5086415;28;20338;-69
2022/03/30 12:10:03;;;;;;;37.80;23.27;;;11.60;94.40;;;;;;5089849;28;20235;-70
2022/03/30 12:12:35;;;;;;;45.25;24.90;;;11.80;94.30;;;;;;5065057;28;20343;-70
2022/03/30 12:15:04;;;;;;;43.10;23.83;;;11.60;93.70;;;;;;5081624;28;20092;-69
2022/03/30 12:17:30;;;;;;;44.45;23.95;;;11.50;94.80;;;;;;5081303;28;20056;-68
2022/03/30 12:19:56;;;;;;;45.20;24.58;;;11.60;94.20;;;;;;5081415;28;20304;-71
2022/03/30 12:22:23;;;;;;;43.38;24.83;;;11.80;94.40;;;;;;5097735;28;20211;-70
2022/03/30 12:24:49;;;;;;;45.15;24.65;;;11.80;93.90;;;;;;5105834;28;20030;-69
2022/03/30 12:27:15;;;;;;;44.67;25.02;;;11.90;94.40;;;;;;5104856;28;20094;-70
2022/03/30 12:29:42;;;;;;;44.70;23.58;;;12.00;94.10;;;;;;5106574;28;20028;-70
2022/03/30 12:32:13;;;;;;;42.97;24.30;;;11.90;93.90;;;;;;5105589;28;20020;-70
2022/03/30 12:34:40;;;;;;;44.03;25.58;;;11.70;94.00;;;;;;5105537;28;20020;-67
2022/03/30 12:37:09;;;;;;;44.95;25.35;;;12.00;94.20;;;;;;5105379;28;20020;-70
2022/03/30 12:39:43;;;;;;;44.90;25.40;;;12.00;93.70;;;;;;5105063;28;20099;-70
2022/03/30 12:42:13;;;;;;;48.47;25.60;;;12.10;93.90;;;;;;5088792;28;20038;-71
2022/03/30 12:44:45;;;;;;;47.75;26.33;;;12.10;93.60;;;;;;5089032;28;20059;-73
2022/03/30 12:47:29;;;;;;;45.75;25.50;;;12.40;93.60;;;;;;5104347;28;20027;-72